Time;durP1;ratioP1;P1;durP2;ratioP2;P2;SDS_P1;SDS_P2;PMS_P1;PMS_P2;Temp;Humidity;BMP_temperature;BMP_pressure;BME280_temperature;BME280_humidity;BME280_pressure;Samples;Min_cycle;Max_cycle;Signal;HPM_P1;HPM_P2
2022/09/20 00:02:06;;;;;;;8.60;4.35;;;;;;;;;;5008202;28;20436;-75
2022/09/20 00:04:35;;;;;;;;;;;;;;;;;;5007931;28;20501;-76
2022/09/20 00:07:05;;;;;;;8.35;4.88;;;;;;;;;;5008534;28;19925;-77
2022/09/20 00:09:35;;;;;;;5.53;4.30;;;;;;;;;;5008536;28;20061;-76
2022/09/20 00:12:07;;;;;;;3.35;2.70;;;;;;;;;;5009475;28;20060;-77
2022/09/20 00:14:37;;;;;;;3.78;2.75;;;;;;;;;;5008632;28;20053;-76
2022/09/20 00:17:06;;;;;;;3.95;2.85;;;;;;;;;;5008546;28;20057;-77
2022/09/20 00:19:38;;;;;;;7.63;3.85;;;;;;;;;;5008424;28;20699;-74
2022/09/20 00:22:07;;;;;;;4.95;2.63;;;;;;;;;;5008105;28;20049;-71
2022/09/20 00:24:37;;;;;;;4.05;3.30;;;;;;;;;;5008554;28;20058;-75
2022/09/20 00:27:07;;;;;;;4.78;3.28;;;;;;;;;;5007051;28;20053;-74
2022/09/20 00:29:37;;;;;;;8.77;3.80;;;;;;;;;;5008307;28;20046;-77
2022/09/20 00:32:07;;;;;;;5.78;3.35;;;;;;;;;;5008295;28;20061;-74
2022/09/20 00:37:26;;;;;;;5.82;3.25;;;;;;;;;;5009242;28;20045;-75
2022/09/20 00:39:56;;;;;;;5.32;3.78;;;;;;;;;;5008147;28;20527;-75
2022/09/20 00:42:30;;;;;;;6.13;3.80;;;;;;;;;;5007533;28;20092;-78
2022/09/20 00:45:05;;;;;;;5.40;4.05;;;;;;;;;;5007743;28;20054;-76
2022/09/20 00:47:38;;;;;;;5.50;3.63;;;;;;;;;;5008293;28;20050;-72
2022/09/20 00:50:44;;;;;;;6.22;4.05;;;;;;;;;;5006883;28;20062;-75
2022/09/20 00:53:45;;;;;;;7.53;4.13;;;;;;;;;;5007752;28;20053;-77
2022/09/20 00:56:21;;;;;;;5.93;4.00;;;;;;;;;;5007692;28;20049;-75
2022/09/20 00:59:04;;;;;;;6.05;3.97;;;;;;;;;;5008243;28;20050;-76
2022/09/20 01:01:35;;;;;;;5.53;4.05;;;;;;;;;;5007838;28;20056;-78
2022/09/20 01:04:07;;;;;;;6.45;4.25;;;;;;;;;;5007290;28;20053;-77
2022/09/20 01:06:38;;;;;;;6.20;4.35;;;;;;;;;;5006980;28;20409;-76
2022/09/20 01:09:07;;;;;;;6.30;4.28;;;;;;;;;;5006928;28;20046;-71
2022/09/20 01:11:39;;;;;;;10.20;5.75;;;;;;;;;;5007390;28;20050;-75
2022/09/20 01:14:14;;;;;;;11.88;5.72;;;;;;;;;;5007267;28;20046;-73
2022/09/20 01:16:44;;;;;;;9.30;5.15;;;;;;;;;;5007053;28;20501;-75
2022/09/20 01:19:34;;;;;;;8.50;5.30;;;;;;;;;;5007013;28;20060;-74
2022/09/20 01:22:16;;;;;;;6.57;4.55;;;;;;;;;;5007362;28;20048;-72
2022/09/20 01:25:15;;;;;;;6.55;4.68;;;;;;;;;;5007376;28;20053;-73
2022/09/20 01:27:50;;;;;;;6.50;4.43;;;;;;;;;;4999476;28;20065;-73
2022/09/20 01:30:29;;;;;;;7.10;4.22;;;;;;;;;;5006760;28;20050;-74
2022/09/20 01:33:27;;;;;;;6.32;5.10;;;;;;;;;;5007042;28;20054;-74
2022/09/20 01:36:03;;;;;;;7.72;5.00;;;;;;;;;;5007046;28;20056;-74
2022/09/20 01:39:08;;;;;;;9.88;5.28;;;;;;;;;;5007479;28;20053;-76
2022/09/20 01:41:49;;;;;;;5.78;4.05;;;;;;;;;;5006976;28;20042;-76
2022/09/20 01:44:35;;;;;;;5.40;3.13;;;;;;;;;;5007078;28;20060;-76
2022/09/20 01:47:24;;;;;;;5.10;3.13;;;;;;;;;;5007221;28;20053;-77
2022/09/20 01:50:15;;;;;;;7.75;3.60;;;;;;;;;;5007182;28;20038;-77
2022/09/20 01:53:05;;;;;;;4.70;2.97;;;;;;;;;;5006853;28;20050;-74
2022/09/20 01:56:10;;;;;;;4.88;3.22;;;;;;;;;;5006602;28;20054;-75
2022/09/20 01:59:13;;;;;;;4.75;2.92;;;;;;;;;;5006900;28;20049;-77
2022/09/20 02:01:52;;;;;;;4.00;2.85;;;;;;;;;;5007368;28;20061;-77
2022/09/20 02:04:56;;;;;;;4.78;2.90;;;;;;;;;;5010722;28;20053;-76
2022/09/20 02:07:28;;;;;;;3.58;2.47;;;;;;;;;;5011525;28;20050;-72
2022/09/20 02:10:21;;;;;;;3.30;2.20;;;;;;;;;;5011104;28;20401;-74
2022/09/20 02:13:40;;;;;;;2.95;1.83;;;;;;;;;;5010486;28;20053;-75
2022/09/20 02:16:28;;;;;;;2.03;1.60;;;;;;;;;;5001350;28;20606;-75
2022/09/20 02:19:07;;;;;;;3.35;1.52;;;;;;;;;;5008679;28;20447;-74
2022/09/20 02:21:42;;;;;;;3.10;1.60;;;;;;;;;;5010114;28;20488;-75
2022/09/20 02:24:46;;;;;;;4.05;1.42;;;;;;;;;;5010496;28;20038;-77
2022/09/20 02:27:19;;;;;;;1.88;1.55;;;;;;;;;;5010441;28;20419;-75
2022/09/20 02:30:08;;;;;;;1.73;1.45;;;;;;;;;;5010212;28;20046;-75
2022/09/20 02:32:49;;;;;;;2.05;1.50;;;;;;;;;;5010668;28;20417;-78
2022/09/20 02:35:38;;;;;;;2.30;1.65;;;;;;;;;;5011037;28;20397;-78
2022/09/20 02:38:19;;;;;;;;;;;;;;;;;;5009655;28;20049;-75
2022/09/20 02:41:14;;;;;;;1.85;1.40;;;;;;;;;;5009891;28;19925;-73
2022/09/20 02:43:52;;;;;;;2.05;1.77;;;;;;;;;;5002054;28;20062;-76
2022/09/20 02:46:33;;;;;;;1.98;1.75;;;;;;;;;;5009354;28;20050;-73
2022/09/20 02:49:07;;;;;;;;;;;;;;;;;;5010888;28;20412;-78
2022/09/20 02:51:43;;;;;;;2.83;1.90;;;;;;;;;;5011092;28;20569;-72
2022/09/20 02:54:43;;;;;;;2.33;1.80;;;;;;;;;;5010774;28;20045;-74
2022/09/20 02:57:24;;;;;;;2.60;2.10;;;;;;;;;;5010280;28;20050;-76
2022/09/20 03:00:04;;;;;;;1.90;1.70;;;;;;;;;;5010224;28;20053;-74
2022/09/20 03:02:56;;;;;;;2.90;1.90;;;;;;;;;;5009529;28;20646;-76
2022/09/20 03:05:54;;;;;;;2.78;1.58;;;;;;;;;;5009662;28;20053;-75
2022/09/20 03:08:31;;;;;;;2.42;1.70;;;;;;;;;;5009658;28;20057;-76
2022/09/20 03:11:24;;;;;;;1.75;1.60;;;;;;;;;;5009891;28;20061;-75
2022/09/20 03:14:16;;;;;;;2.58;2.03;;;;;;;;;;5008102;28;20452;-76
2022/09/20 03:17:42;;;;;;;2.53;1.88;;;;;;;;;;5009805;28;20073;-76
2022/09/20 03:20:24;;;;;;;3.33;2.13;;;;;;;;;;5009328;28;20397;-77
2022/09/20 03:23:22;;;;;;;4.57;2.40;;;;;;;;;;5010058;28;20049;-74
2022/09/20 03:26:10;;;;;;;3.03;2.10;;;;;;;;;;5008247;28;20057;-77
2022/09/20 03:28:52;;;;;;;3.08;2.35;;;;;;;;;;5009576;28;20501;-79
2022/09/20 03:31:37;;;;;;;;;;;;;;;;;;5009854;28;20057;-75
2022/09/20 03:34:41;;;;;;;2.88;2.35;;;;;;;;;;5009882;28;20422;-73
2022/09/20 03:37:25;;;;;;;3.33;2.30;;;;;;;;;;5009209;28;20053;-74
2022/09/20 03:40:05;;;;;;;2.25;1.83;;;;;;;;;;5009208;28;20038;-72
2022/09/20 03:42:50;;;;;;;3.15;2.20;;;;;;;;;;5009540;28;20042;-74
2022/09/20 03:45:45;;;;;;;2.88;1.75;;;;;;;;;;5009839;28;20060;-75
2022/09/20 03:48:36;;;;;;;2.85;1.73;;;;;;;;;;5008727;28;20520;-72
2022/09/20 03:51:09;;;;;;;2.53;1.88;;;;;;;;;;5008690;28;20057;-78
2022/09/20 03:53:55;;;;;;;3.38;1.88;;;;;;;;;;5008422;28;20057;-74
2022/09/20 03:56:28;;;;;;;2.53;2.03;;;;;;;;;;5008582;28;20061;-74
2022/09/20 03:59:17;;;;;;;2.15;1.65;;;;;;;;;;5009648;28;20050;-75
2022/09/20 04:02:32;;;;;;;2.53;1.65;;;;;;;;;;5008910;28;20046;-72
2022/09/20 04:05:12;;;;;;;6.90;2.08;;;;;;;;;;5008101;28;20085;-75
2022/09/20 04:08:12;;;;;;;2.95;1.70;;;;;;;;;;5008106;28;20053;-74
2022/09/20 04:11:05;;;;;;;;;;;;;;;;;;5008624;28;20080;-73
2022/09/20 04:13:39;;;;;;;1.73;1.27;;;;;;;;;;5003336;28;19925;-73
2022/09/20 04:16:26;;;;;;;2.30;1.50;;;;;;;;;;5008889;28;20049;-73
2022/09/20 04:19:40;;;;;;;2.40;1.65;;;;;;;;;;5008454;28;20053;-72
2022/09/20 04:22:09;;;;;;;;;;;;;;;;;;5003291;28;20046;-75
2022/09/20 04:25:04;;;;;;;5.35;1.40;;;;;;;;;;5007699;28;19948;-75
2022/09/20 04:27:49;;;;;;;1.90;1.17;;;;;;;;;;5008593;28;20061;-75
2022/09/20 04:30:23;;;;;;;1.83;1.48;;;;;;;;;;5008104;28;20050;-74
2022/09/20 04:33:12;;;;;;;1.42;1.13;;;;;;;;;;5007478;28;20050;-78
2022/09/20 04:36:28;;;;;;;6.03;1.42;;;;;;;;;;5008047;28;20065;-76
2022/09/20 04:39:41;;;;;;;2.05;1.50;;;;;;;;;;5008580;28;20050;-74
2022/09/20 04:42:32;;;;;;;1.98;1.35;;;;;;;;;;5007735;28;20052;-75
2022/09/20 04:45:39;;;;;;;1.48;1.17;;;;;;;;;;5007925;28;20042;-76
2022/09/20 04:48:25;;;;;;;1.75;1.20;;;;;;;;;;5008448;28;20069;-75
2022/09/20 04:51:16;;;;;;;1.88;1.20;;;;;;;;;;5007759;28;20046;-78
2022/09/20 04:54:14;;;;;;;1.77;1.40;;;;;;;;;;5007364;28;20042;-74
2022/09/20 04:57:08;;;;;;;1.75;1.30;;;;;;;;;;5007686;28;20509;-77
2022/09/20 05:00:13;;;;;;;3.33;1.48;;;;;;;;;;5007480;28;20060;-74
2022/09/20 05:03:29;;;;;;;3.83;1.50;;;;;;;;;;5006451;28;20062;-75
2022/09/20 05:06:13;;;;;;;1.55;1.20;;;;;;;;;;5005802;28;20064;-77
2022/09/20 05:09:01;;;;;;;1.30;1.20;;;;;;;;;;5007637;28;20042;-76
2022/09/20 05:12:01;;;;;;;2.00;1.15;;;;;;;;;;5008054;28;20050;-73
2022/09/20 05:14:52;;;;;;;1.10;1.00;;;;;;;;;;5007577;28;20038;-76
2022/09/20 05:18:14;;;;;;;1.83;1.55;;;;;;;;;;5007125;28;20049;-76
2022/09/20 05:21:23;;;;;;;1.98;1.77;;;;;;;;;;4987906;28;20069;-75
2022/09/20 05:24:15;;;;;;;1.63;1.38;;;;;;;;;;5007073;28;20493;-73
2022/09/20 05:27:08;;;;;;;1.38;1.27;;;;;;;;;;5007289;28;20404;-74
2022/09/20 05:29:51;;;;;;;1.58;1.42;;;;;;;;;;5006973;28;20045;-72
2022/09/20 05:32:50;;;;;;;1.45;1.35;;;;;;;;;;5008293;28;20049;-72
2022/09/20 05:35:47;;;;;;;1.75;1.38;;;;;;;;;;5007836;28;20050;-74
2022/09/20 05:38:46;;;;;;;2.50;1.15;;;;;;;;;;5017085;28;20053;-70
2022/09/20 05:41:19;;;;;;;1.63;1.25;;;;;;;;;;5006905;28;20049;-74
2022/09/20 05:44:11;;;;;;;1.73;1.35;;;;;;;;;;5006838;28;20057;-76
2022/09/20 05:47:17;;;;;;;1.63;1.48;;;;;;;;;;5007207;28;20045;-73
2022/09/20 05:50:05;;;;;;;1.67;1.33;;;;;;;;;;5006973;28;20054;-73
2022/09/20 05:52:52;;;;;;;1.83;1.40;;;;;;;;;;5007460;28;20069;-77
2022/09/20 05:55:44;;;;;;;4.47;1.02;;;;;;;;;;5007603;28;20061;-70
2022/09/20 05:58:27;;;;;;;1.23;1.10;;;;;;;;;;5012254;28;20068;-71
2022/09/20 06:01:01;;;;;;;1.77;1.02;;;;;;;;;;5007505;28;20054;-74
2022/09/20 06:03:44;;;;;;;1.63;0.93;;;;;;;;;;5006889;28;20060;-76
2022/09/20 06:06:25;;;;;;;1.50;1.10;;;;;;;;;;5006942;28;20061;-73
2022/09/20 06:09:08;;;;;;;0.88;0.80;;;;;;;;;;5006943;28;20053;-73
2022/09/20 06:11:57;;;;;;;4.57;1.00;;;;;;;;;;5007425;28;20050;-77
2022/09/20 06:14:58;;;;;;;3.20;1.10;;;;;;;;;;5006674;28;20035;-72
2022/09/20 06:18:07;;;;;;;1.88;1.30;;;;;;;;;;5007597;28;20049;-75
2022/09/20 06:20:57;;;;;;;1.10;1.00;;;;;;;;;;5006876;28;20053;-76
2022/09/20 06:23:30;;;;;;;4.30;1.20;;;;;;;;;;5006430;28;20054;-76
2022/09/20 06:26:06;;;;;;;1.33;1.02;;;;;;;;;;5006801;28;20388;-74
2022/09/20 06:28:45;;;;;;;3.60;1.13;;;;;;;;;;5006831;28;20076;-78
2022/09/20 06:31:16;;;;;;;3.33;1.55;;;;;;;;;;5006595;28;20062;-76
2022/09/20 06:33:56;;;;;;;1.40;1.30;;;;;;;;;;5006530;28;20045;-73
2022/09/20 06:42:25;;;;;;;2.53;1.30;;;;;;;;;;5006521;28;20057;-72
2022/09/20 06:44:56;;;;;;;1.52;1.25;;;;;;;;;;5006526;28;20058;-73
2022/09/20 06:47:26;;;;;;;1.60;1.48;;;;;;;;;;5007324;28;20531;-75
2022/09/20 06:49:55;;;;;;;;;;;;;;;;;;5010472;28;20042;-72
2022/09/20 06:52:25;;;;;;;2.25;1.85;;;;;;;;;;5009680;28;19929;-75
2022/09/20 06:54:56;;;;;;;1.98;1.50;;;;;;;;;;5010015;28;20049;-70
2022/09/20 06:57:39;;;;;;;2.00;1.48;;;;;;;;;;5010207;28;20053;-73
2022/09/20 07:00:14;;;;;;;1.50;1.40;;;;;;;;;;5010194;28;20054;-73
2022/09/20 07:02:45;;;;;;;5.35;3.13;;;;;;;;;;5010228;28;20502;-76
2022/09/20 07:05:16;;;;;;;2.45;2.25;;;;;;;;;;5009818;28;20064;-75
2022/09/20 07:07:46;;;;;;;4.30;2.65;;;;;;;;;;5009571;28;20050;-74
2022/09/20 07:10:16;;;;;;;4.47;2.90;;;;;;;;;;5010026;28;20416;-72
2022/09/20 07:12:45;;;;;;;;;;;;;;;;;;5010324;28;20397;-74
2022/09/20 07:15:15;;;;;;;5.78;4.13;;;;;;;;;;5009517;28;19936;-75
2022/09/20 07:17:47;;;;;;;5.20;3.75;;;;;;;;;;5010745;28;20477;-72
2022/09/20 07:20:19;;;;;;;7.32;4.15;;;;;;;;;;5009072;28;20050;-72
2022/09/20 07:22:49;;;;;;;7.80;3.53;;;;;;;;;;5009919;28;20481;-74
2022/09/20 07:25:20;;;;;;;5.32;3.22;;;;;;;;;;5009365;28;20054;-73
2022/09/20 07:27:50;;;;;;;4.03;3.28;;;;;;;;;;5009396;28;20038;-75
2022/09/20 07:30:20;;;;;;;;;;;;;;;;;;5009945;28;20057;-75
2022/09/20 07:32:50;;;;;;;4.93;3.55;;;;;;;;;;5009600;28;20269;-74
2022/09/20 07:35:19;;;;;;;;;;;;;;;;;;5009912;28;20501;-72
2022/09/20 07:37:56;;;;;;;6.65;5.13;;;;;;;;;;5009505;28;19921;-75
2022/09/20 07:40:26;;;;;;;7.68;6.00;;;;;;;;;;5008979;28;20050;-73
2022/09/20 07:42:57;;;;;;;7.28;6.03;;;;;;;;;;5008375;28;20048;-74
2022/09/20 07:45:28;;;;;;;7.03;6.20;;;;;;;;;;5009907;28;20480;-76
2022/09/20 07:47:58;;;;;;;7.03;6.32;;;;;;;;;;5008953;28;20045;-76
2022/09/20 07:50:28;;;;;;;10.00;7.15;;;;;;;;;;5009039;28;20399;-72
2022/09/20 07:52:57;;;;;;;;;;;;;;;;;;5009163;28;20050;-72
2022/09/20 07:55:27;;;;;;;8.40;6.97;;;;;;;;;;5008849;28;20537;-75
2022/09/20 07:57:56;;;;;;;;;;;;;;;;;;5009366;28;20061;-71
2022/09/20 08:00:25;;;;;;;6.63;5.93;;;;;;;;;;5008530;28;19936;-71
2022/09/20 08:02:59;;;;;;;;;;;;;;;;;;5008950;28;20050;-74
2022/09/20 08:05:30;;;;;;;6.47;5.53;;;;;;;;;;5007335;28;20314;-76
2022/09/20 08:08:01;;;;;;;7.20;5.60;;;;;;;;;;5009179;28;20501;-74
2022/09/20 08:10:31;;;;;;;6.30;5.65;;;;;;;;;;5008674;28;20489;-73
2022/09/20 08:13:01;;;;;;;7.43;6.60;;;;;;;;;;5008274;28;20042;-76
2022/09/20 08:15:51;;;;;;;6.85;5.75;;;;;;;;;;5007950;28;20052;-76
2022/09/20 08:18:21;;;;;;;;;;;;;;;;;;5008780;28;20046;-77
2022/09/20 08:20:51;;;;;;;8.18;4.78;;;;;;;;;;5008542;28;20308;-74
2022/09/20 08:23:21;;;;;;;5.82;5.15;;;;;;;;;;5008231;28;20045;-70
2022/09/20 08:25:55;;;;;;;7.43;4.82;;;;;;;;;;5008648;28;20050;-76
2022/09/20 08:28:25;;;;;;;6.95;4.90;;;;;;;;;;5007194;28;20042;-77
2022/09/20 08:31:01;;;;;;;;;;;;;;;;;;5009167;28;20607;-75
2022/09/20 08:33:35;;;;;;;6.28;5.35;;;;;;;;;;5008003;28;19925;-73
2022/09/20 08:36:13;;;;;;;6.88;6.10;;;;;;;;;;5008213;28;20383;-73
2022/09/20 08:38:44;;;;;;;7.07;6.38;;;;;;;;;;5008267;28;20523;-76
2022/09/20 08:41:49;;;;;;;6.00;5.28;;;;;;;;;;5007942;28;20046;-75
2022/09/20 08:44:27;;;;;;;5.82;5.10;;;;;;;;;;5007925;28;20050;-76
2022/09/20 08:47:18;;;;;;;5.43;4.93;;;;;;;;;;5006889;28;20539;-76
2022/09/20 08:49:51;;;;;;;7.85;5.82;;;;;;;;;;5008275;28;21020;-69
2022/09/20 08:52:32;;;;;;;;;;;;;;;;;;5008327;28;20045;-72
2022/09/20 08:55:24;;;;;;;5.93;5.25;;;;;;;;;;5007949;28;19932;-77
2022/09/20 08:57:57;;;;;;;6.20;5.60;;;;;;;;;;5008194;28;20046;-73
2022/09/20 09:00:35;;;;;;;8.50;6.35;;;;;;;;;;5011904;28;20061;-73
2022/09/20 09:03:11;;;;;;;9.65;7.75;;;;;;;;;;5015117;28;20050;-70
2022/09/20 09:05:43;;;;;;;10.93;7.00;;;;;;;;;;5016273;28;20050;-75
2022/09/20 09:08:17;;;;;;;11.25;7.60;;;;;;;;;;5007846;28;20050;-74
2022/09/20 09:11:11;;;;;;;9.45;7.32;;;;;;;;;;5006998;28;20057;-72
2022/09/20 09:13:47;;;;;;;8.07;7.13;;;;;;;;;;5007697;28;20050;-75
2022/09/20 09:16:19;;;;;;;14.07;7.90;;;;;;;;;;5007363;28;20409;-79
2022/09/20 09:18:56;;;;;;;8.45;7.25;;;;;;;;;;5006963;28;20046;-75
2022/09/20 09:21:30;;;;;;;9.15;7.10;;;;;;;;;;5007383;28;20054;-74
2022/09/20 09:24:19;;;;;;;10.00;8.25;;;;;;;;;;5007251;28;20042;-76
2022/09/20 09:26:51;;;;;;;9.52;7.60;;;;;;;;;;5006967;28;20042;-75
2022/09/20 09:29:22;;;;;;;9.85;8.48;;;;;;;;;;5007875;28;20061;-75
2022/09/20 09:31:55;;;;;;;10.57;7.25;;;;;;;;;;5007056;28;20604;-74
2022/09/20 09:34:32;;;;;;;12.70;8.25;;;;;;;;;;5007649;28;20033;-75
2022/09/20 09:37:02;;;;;;;11.98;8.15;;;;;;;;;;5006944;28;20046;-73
2022/09/20 09:39:36;;;;;;;7.65;6.55;;;;;;;;;;5006827;28;20057;-75
2022/09/20 09:42:22;;;;;;;9.40;7.50;;;;;;;;;;5007231;28;20049;-77
2022/09/20 09:44:52;;;;;;;9.40;5.95;;;;;;;;;;5006742;28;20053;-76
2022/09/20 09:47:37;;;;;;;12.10;5.50;;;;;;;;;;5007123;28;20061;-73
2022/09/20 09:50:22;;;;;;;9.20;4.40;;;;;;;;;;5007027;28;20053;-78
2022/09/20 09:52:59;;;;;;;;;;;;;;;;;;5007618;28;20060;-78
2022/09/20 09:56:07;;;;;;;6.47;3.08;;;;;;;;;;5007411;28;19921;-72
2022/09/20 09:59:09;;;;;;;6.82;3.13;;;;;;;;;;5005527;28;20052;-76
2022/09/20 10:01:58;;;;;;;5.03;3.42;;;;;;;;;;5006668;28;20045;-76
2022/09/20 10:04:47;;;;;;;4.18;3.03;;;;;;;;;;5006111;28;20054;-77
2022/09/20 10:07:18;;;;;;;3.25;2.35;;;;;;;;;;5006420;28;20045;-76
2022/09/20 10:10:15;;;;;;;3.85;2.80;;;;;;;;;;5006810;28;20050;-74
2022/09/20 10:13:13;;;;;;;7.95;3.50;;;;;;;;;;5006627;28;20049;-75
2022/09/20 10:16:00;;;;;;;6.00;3.63;;;;;;;;;;5006973;28;20042;-74
2022/09/20 10:18:43;;;;;;;6.72;4.63;;;;;;;;;;5007014;28;20046;-75
2022/09/20 10:21:42;;;;;;;8.82;5.47;;;;;;;;;;5007007;28;20046;-73
2022/09/20 10:35:15;;;;;;;9.35;6.75;;;;;;;;;;5125193;27;20488;-74
2022/09/20 10:38:25;;;;;;;8.32;6.15;;;;;;;;;;5124889;28;20043;-71
2022/09/20 10:44:51;;;;;;;9.05;5.35;;;;;;;;;;5100927;28;20086;-71
2022/09/20 10:47:33;;;;;;;7.57;5.38;;;;;;;;;;5101315;28;20059;-75
2022/09/20 10:50:28;;;;;;;7.43;4.97;;;;;;;;;;5115260;27;20066;-75
2022/09/20 10:53:16;;;;;;;11.60;5.10;;;;;;;;;;5124123;28;20062;-73
2022/09/20 10:56:14;;;;;;;6.60;4.72;;;;;;;;;;5124373;28;20773;-75
2022/09/20 10:59:05;;;;;;;8.63;4.90;;;;;;;;;;5124066;28;20113;-73
2022/09/20 11:02:16;;;;;;;6.30;4.63;;;;;;;;;;5122446;28;20075;-75
2022/09/20 11:05:27;;;;;;;5.65;4.30;;;;;;;;;;5124342;28;20066;-77
2022/09/20 11:08:13;;;;;;;7.07;4.32;;;;;;;;;;5124715;28;20062;-75
2022/09/20 11:10:59;;;;;;;5.90;4.15;;;;;;;;;;5124354;28;20051;-75
2022/09/20 11:13:35;;;;;;;6.53;4.90;;;;;;;;;;5124085;28;20109;-75
2022/09/20 11:16:09;;;;;;;5.60;4.05;;;;;;;;;;5123466;28;20043;-74
2022/09/20 11:18:52;;;;;;;7.30;3.95;;;;;;;;;;5122274;28;20052;-72
2022/09/20 11:21:46;;;;;;;8.15;4.38;;;;;;;;;;5123807;28;20054;-76
2022/09/20 11:24:40;;;;;;;5.20;3.75;;;;;;;;;;5123404;28;20051;-73
2022/09/20 11:27:31;;;;;;;5.60;3.20;;;;;;;;;;5123844;28;20039;-75
2022/09/20 11:30:13;;;;;;;5.38;3.60;;;;;;;;;;5123187;28;20588;-73
2022/09/20 11:33:15;;;;;;;4.03;3.05;;;;;;;;;;5123246;28;20040;-72
2022/09/20 11:35:50;;;;;;;3.33;2.47;;;;;;;;;;5093680;28;20047;-74
2022/09/20 11:38:39;;;;;;;3.78;2.50;;;;;;;;;;5110271;28;20055;-73
2022/09/20 11:41:18;;;;;;;4.45;2.00;;;;;;;;;;5110338;28;20048;-75
2022/09/20 11:43:49;;;;;;;2.90;2.63;;;;;;;;;;5109306;28;20059;-74
2022/09/20 11:46:33;;;;;;;2.53;2.03;;;;;;;;;;5109649;28;20047;-72
2022/09/20 11:49:14;;;;;;;3.30;1.70;;;;;;;;;;5109439;28;20047;-78
2022/09/20 11:52:02;;;;;;;7.75;2.13;;;;;;;;;;5109420;28;20086;-75
2022/09/20 11:54:41;;;;;;;;;;;;;;;;;;5110050;28;20040;-73
2022/09/20 11:57:15;;;;;;;2.67;1.90;;;;;;;;;;5109030;28;19923;-73
2022/09/20 11:59:58;;;;;;;3.10;2.00;;;;;;;;;;5109434;28;20157;-72
2022/09/20 12:02:46;;;;;;;2.05;1.23;;;;;;;;;;5109422;28;20054;-76
2022/09/20 12:05:42;;;;;;;3.50;1.70;;;;;;;;;;5109320;28;20378;-76
2022/09/20 12:08:28;;;;;;;2.15;1.70;;;;;;;;;;5107694;28;20395;-75
2022/09/20 12:11:13;;;;;;;4.07;2.15;;;;;;;;;;5109456;28;20478;-75
2022/09/20 12:13:54;;;;;;;1.55;1.40;;;;;;;;;;5109102;28;20047;-72
2022/09/20 12:16:43;;;;;;;3.30;1.48;;;;;;;;;;5109700;28;20047;-71
2022/09/20 12:19:31;;;;;;;4.47;1.40;;;;;;;;;;5114042;28;20058;-76
2022/09/20 12:22:04;;;;;;;6.18;1.50;;;;;;;;;;5111258;28;20052;-76
2022/09/20 12:24:38;;;;;;;16.25;2.30;;;;;;;;;;5108941;28;20047;-74
2022/09/20 12:27:29;;;;;;;2.33;1.30;;;;;;;;;;5108594;28;20043;-73
2022/09/20 12:30:05;;;;;;;3.17;1.50;;;;;;;;;;5108797;28;20043;-74
2022/09/20 12:32:47;;;;;;;1.77;1.20;;;;;;;;;;5109252;28;20043;-78
2022/09/20 12:35:56;;;;;;;1.70;1.23;;;;;;;;;;5109049;28;20062;-77
2022/09/20 12:38:29;;;;;;;1.50;1.30;;;;;;;;;;5086333;28;20429;-77
2022/09/20 12:41:15;;;;;;;1.25;0.98;;;;;;;;;;5108055;28;20067;-77
2022/09/20 12:44:03;;;;;;;2.05;1.35;;;;;;;;;;5108673;28;20044;-72
2022/09/20 12:46:58;;;;;;;2.22;1.13;;;;;;;;;;5107745;28;20440;-79
2022/09/20 12:55:39;;;;;;;2.22;1.52;;;;;;;;;;5108216;28;20040;-74
2022/09/20 12:58:12;;;;;;;1.90;1.48;;;;;;;;;;5102561;28;20059;-72
2022/09/20 13:00:58;;;;;;;1.95;1.60;;;;;;;;;;5107975;28;20043;-73
2022/09/20 13:03:39;;;;;;;2.15;1.20;;;;;;;;;;5108165;28;20051;-72
2022/09/20 13:06:16;;;;;;;5.65;5.15;;;;;;;;;;5109046;28;20070;-74
2022/09/20 13:09:03;;;;;;;1.60;1.13;;;;;;;;;;5106147;28;20058;-75
2022/09/20 13:11:55;;;;;;;2.58;1.30;;;;;;;;;;5108104;28;20040;-72
2022/09/20 13:14:31;;;;;;;3.08;1.23;;;;;;;;;;5108010;28;20048;-74
2022/09/20 13:17:30;;;;;;;2.28;1.17;;;;;;;;;;5107753;28;20547;-73
2022/09/20 13:20:01;;;;;;;2.00;1.55;;;;;;;;;;5108007;28;20043;-73
2022/09/20 13:22:44;;;;;;;2.22;1.40;;;;;;;;;;5107650;28;20044;-73
2022/09/20 13:25:16;;;;;;;3.28;1.52;;;;;;;;;;5105648;28;20062;-74
2022/09/20 13:27:53;;;;;;;2.40;1.60;;;;;;;;;;5107433;28;20047;-73
2022/09/20 13:30:28;;;;;;;2.35;1.33;;;;;;;;;;5107334;28;20043;-72
2022/09/20 13:33:24;;;;;;;2.78;1.27;;;;;;;;;;5107414;28;20051;-73
2022/09/20 13:35:57;;;;;;;2.78;1.73;;;;;;;;;;5108259;28;20048;-78
2022/09/20 13:38:30;;;;;;;2.05;1.50;;;;;;;;;;5107808;28;20055;-72
2022/09/20 13:41:12;;;;;;;3.05;1.40;;;;;;;;;;5107208;28;20512;-75
2022/09/20 13:43:48;;;;;;;2.20;1.17;;;;;;;;;;5107064;28;20040;-75
2022/09/20 13:46:23;;;;;;;3.65;1.50;;;;;;;;;;5107550;28;20562;-75
2022/09/20 13:49:09;;;;;;;2.03;1.33;;;;;;;;;;5107061;28;20043;-72
2022/09/20 13:51:39;;;;;;;4.60;1.60;;;;;;;;;;5106956;28;20096;-74
2022/09/20 13:54:29;;;;;;;2.40;1.52;;;;;;;;;;5107129;28;20051;-73
2022/09/20 13:57:05;;;;;;;3.67;1.40;;;;;;;;;;5105198;28;20047;-75
2022/09/20 13:59:43;;;;;;;3.92;1.90;;;;;;;;;;5106699;28;20106;-74
2022/09/20 14:02:33;;;;;;;3.35;2.33;;;;;;;;;;5107215;28;20052;-73
2022/09/20 14:05:06;;;;;;;2.33;1.90;;;;;;;;;;5105714;28;20044;-75
2022/09/20 14:07:36;;;;;;;3.33;1.90;;;;;;;;;;5106841;28;20039;-74
2022/09/20 14:10:30;;;;;;;2.20;1.50;;;;;;;;;;5107064;28;20043;-74
2022/09/20 14:13:05;;;;;;;2.40;1.70;;;;;;;;;;5107112;28;20047;-76
2022/09/20 14:15:42;;;;;;;2.33;2.05;;;;;;;;;;5106428;28;20058;-74
2022/09/20 14:18:17;;;;;;;3.85;2.28;;;;;;;;;;5106716;28;20062;-76
2022/09/20 14:20:48;;;;;;;3.28;2.30;;;;;;;;;;5106731;28;20409;-72
2022/09/20 14:23:26;;;;;;;5.43;2.28;;;;;;;;;;5106649;28;20413;-75
2022/09/20 14:26:37;;;;;;;4.20;1.88;;;;;;;;;;5105156;28;20528;-75
2022/09/20 14:29:37;;;;;;;3.47;1.50;;;;;;;;;;5106961;28;20047;-74
2022/09/20 14:32:19;;;;;;;3.80;1.80;;;;;;;;;;5106936;28;20063;-75
2022/09/20 14:34:56;;;;;;;2.15;1.40;;;;;;;;;;5106700;28;20060;-75
2022/09/20 14:37:33;;;;;;;2.65;1.30;;;;;;;;;;5106326;28;20059;-74
2022/09/20 14:40:16;;;;;;;1.77;1.48;;;;;;;;;;5106357;28;20052;-74
2022/09/20 14:42:49;;;;;;;3.42;1.48;;;;;;;;;;5106478;28;20050;-73
2022/09/20 14:45:30;;;;;;;3.85;1.73;;;;;;;;;;5106763;28;20047;-72
2022/09/20 14:48:08;;;;;;;4.97;1.60;;;;;;;;;;5105512;28;20405;-73
2022/09/20 14:50:42;;;;;;;2.17;1.45;;;;;;;;;;5106525;28;20058;-72
2022/09/20 14:53:18;;;;;;;5.47;1.80;;;;;;;;;;5106316;28;20047;-76
2022/09/20 14:55:58;;;;;;;3.70;1.52;;;;;;;;;;5106402;28;20051;-79
2022/09/20 14:58:30;;;;;;;5.22;1.98;;;;;;;;;;5106007;28;20052;-76
2022/09/20 15:01:04;;;;;;;3.58;1.80;;;;;;;;;;5106375;28;20047;-75
2022/09/20 15:03:39;;;;;;;4.75;1.45;;;;;;;;;;5106933;28;20040;-75
2022/09/20 15:06:10;;;;;;;;;;;;;;;;;;5106322;28;20040;-72
2022/09/20 15:08:40;;;;;;;1.88;1.40;;;;;;;;;;5105846;28;19947;-78
2022/09/20 15:11:16;;;;;;;2.25;1.25;;;;;;;;;;5107979;28;20063;-74
2022/09/20 15:13:46;;;;;;;4.18;1.42;;;;;;;;;;5111316;28;20044;-74
2022/09/20 15:16:19;;;;;;;4.60;1.38;;;;;;;;;;5110480;28;20394;-74
2022/09/20 15:18:49;;;;;;;3.50;1.27;;;;;;;;;;5109781;28;20569;-73
2022/09/20 15:21:19;;;;;;;1.70;1.23;;;;;;;;;;5110368;28;20051;-74
2022/09/20 15:23:48;;;;;;;5.88;1.45;;;;;;;;;;5109576;28;20228;-76
2022/09/20 15:26:20;;;;;;;3.85;2.47;;;;;;;;;;5109371;28;20047;-75
2022/09/20 15:28:50;;;;;;;7.93;1.65;;;;;;;;;;5108733;28;20035;-74
2022/09/20 15:31:20;;;;;;;3.42;1.50;;;;;;;;;;5108794;28;20670;-76
2022/09/20 15:33:50;;;;;;;3.53;1.63;;;;;;;;;;5110072;28;20051;-74
2022/09/20 15:36:20;;;;;;;3.58;1.67;;;;;;;;;;5109638;28;20043;-76
2022/09/20 15:38:53;;;;;;;4.55;1.75;;;;;;;;;;5109754;28;20486;-75
2022/09/20 15:41:23;;;;;;;2.88;1.30;;;;;;;;;;5109186;28;20051;-74
2022/09/20 15:44:00;;;;;;;6.95;1.80;;;;;;;;;;5109761;28;20055;-73
2022/09/20 15:46:31;;;;;;;4.03;1.50;;;;;;;;;;5109130;28;20047;-75
2022/09/20 15:49:03;;;;;;;3.17;1.50;;;;;;;;;;5109086;28;20540;-75
2022/09/20 15:51:34;;;;;;;4.13;1.70;;;;;;;;;;5109049;28;20498;-75
2022/09/20 15:54:06;;;;;;;4.40;1.55;;;;;;;;;;5106871;28;20079;-73
2022/09/20 15:56:46;;;;;;;4.45;1.83;;;;;;;;;;5109188;28;20051;-73
2022/09/20 15:59:20;;;;;;;4.70;1.70;;;;;;;;;;5107556;28;20056;-73
2022/09/20 16:01:51;;;;;;;3.67;1.67;;;;;;;;;;5109703;28;20055;-75
2022/09/20 16:04:22;;;;;;;4.50;1.40;;;;;;;;;;5107663;28;20048;-74
2022/09/20 16:06:53;;;;;;;4.60;1.63;;;;;;;;;;5109144;28;20040;-75
2022/09/20 16:09:23;;;;;;;2.17;1.35;;;;;;;;;;5109177;28;20044;-74
2022/09/20 16:11:57;;;;;;;3.80;1.23;;;;;;;;;;5109787;28;20404;-75
2022/09/20 16:14:27;;;;;;;4.50;1.25;;;;;;;;;;5109359;28;20051;-75
2022/09/20 16:16:57;;;;;;;6.07;1.58;;;;;;;;;;5108771;28;20048;-74
2022/09/20 16:19:29;;;;;;;6.50;1.50;;;;;;;;;;5109059;28;20059;-75
2022/09/20 16:21:59;;;;;;;3.58;1.60;;;;;;;;;;5108598;28;20055;-74
2022/09/20 16:24:32;;;;;;;6.78;1.73;;;;;;;;;;5106210;28;20050;-74
2022/09/20 16:27:04;;;;;;;6.68;2.00;;;;;;;;;;5107759;28;20405;-74
2022/09/20 16:29:36;;;;;;;3.60;1.50;;;;;;;;;;5107219;28;20044;-73
2022/09/20 16:32:06;;;;;;;27.05;4.57;;;;;;;;;;5108933;28;20047;-74
2022/09/20 16:34:36;;;;;;;7.35;1.80;;;;;;;;;;5107052;28;20414;-72
2022/09/20 16:37:15;;;;;;;8.77;2.05;;;;;;;;;;5107984;28;20414;-74
2022/09/20 16:39:45;;;;;;;5.15;1.67;;;;;;;;;;5108768;28;20050;-73
2022/09/20 16:42:15;;;;;;;5.00;1.92;;;;;;;;;;5108568;28;20055;-73
2022/09/20 16:44:46;;;;;;;7.13;2.15;;;;;;;;;;5107862;28;20055;-74